PRIVATE WETTERSTATION BILLIGHEIM-ALLFELD                       ZURCK
Wetterdaten: Montag, 21.02.2022
Datum Zeit Temp. A. Temp. A. min Temp. A. max Feuchte A. Luftdruck Regen Wind Richtung Richtung Sonnenschein ET Solar Taupunkt Windchill Windben Empfang
21.02.2022 00:00 9,3 C 9,3 C 9,3 C 77 % 1005,0 hPa 0,0 l/m 27,4 km/h (4 Bft) S-SW 202 0 min 0,051 mm 0 W/m 5,5 C 0,3 C 45,1 km/h (6 Bft) 87 %
21.02.2022 00:10 9,3 C 9,3 C 9,3 C 77 % 1004,8 hPa 0,0 l/m 25,7 km/h (4 Bft) SW 225 0 min 0,000 mm 0 W/m 5,5 C 0,7 C 64,4 km/h (8 Bft) 98 %
21.02.2022 00:20 9,3 C 9,3 C 9,3 C 77 % 1004,7 hPa 0,0 l/m 22,5 km/h (4 Bft) SW 225 0 min 0,000 mm 0 W/m 5,5 C 1,6 C 64,4 km/h (8 Bft) 97 %
21.02.2022 00:30 9,4 C 9,3 C 9,4 C 77 % 1004,2 hPa 0,0 l/m 24,1 km/h (4 Bft) SW 225 0 min 0,000 mm 0 W/m 5,6 C 1,3 C 49,9 km/h (6 Bft) 98 %
21.02.2022 00:40 9,3 C 9,3 C 9,4 C 77 % 1004,0 hPa 0,0 l/m 22,5 km/h (4 Bft) S-SW 202 0 min 0,000 mm 0 W/m 5,5 C 1,6 C 41,8 km/h (6 Bft) 98 %
21.02.2022 00:50 9,3 C 9,3 C 9,3 C 77 % 1003,9 hPa 0,0 l/m 22,5 km/h (4 Bft) SW 225 0 min 0,000 mm 0 W/m 5,5 C 1,6 C 53,1 km/h (7 Bft) 96 %
21.02.2022 01:00 9,3 C 9,3 C 9,4 C 78 % 1003,7 hPa 0,0 l/m 29,0 km/h (5 Bft) SW 225 0 min 0,051 mm 0 W/m 5,7 C -0,1 C 56,3 km/h (7 Bft) 98 %
21.02.2022 01:10 9,2 C 9,2 C 9,3 C 78 % 1003,4 hPa 0,0 l/m 22,5 km/h (4 Bft) SW 225 0 min 0,000 mm 0 W/m 5,6 C 1,5 C 41,8 km/h (6 Bft) 97 %
21.02.2022 01:20 9,3 C 9,2 C 9,3 C 78 % 1003,3 hPa 0,0 l/m 25,7 km/h (4 Bft) SW 225 0 min 0,000 mm 0 W/m 5,7 C 0,7 C 54,7 km/h (7 Bft) 98 %
21.02.2022 01:30 9,3 C 9,3 C 9,3 C 79 % 1003,2 hPa 0,0 l/m 24,1 km/h (4 Bft) SW 225 0 min 0,000 mm 0 W/m 5,8 C 1,1 C 54,7 km/h (7 Bft) 97 %
21.02.2022 01:40 9,2 C 9,2 C 9,3 C 79 % 1002,7 hPa 0,0 l/m 30,6 km/h (5 Bft) SW 225 0 min 0,000 mm 0 W/m 5,8 C -0,6 C 64,4 km/h (8 Bft) 97 %
21.02.2022 01:50 9,2 C 9,1 C 9,2 C 80 % 1002,5 hPa 0,0 l/m 30,6 km/h (5 Bft) SW 225 0 min 0,000 mm 0 W/m 5,9 C -0,6 C 61,2 km/h (7 Bft) 98 %
21.02.2022 02:00 9,2 C 9,1 C 9,2 C 80 % 1002,4 hPa 0,0 l/m 30,6 km/h (5 Bft) SW 225 0 min 0,051 mm 0 W/m 5,9 C -0,6 C 54,7 km/h (7 Bft) 97 %
21.02.2022 02:10 9,1 C 9,1 C 9,1 C 80 % 1001,9 hPa 0,0 l/m 30,6 km/h (5 Bft) SW 225 0 min 0,000 mm 0 W/m 5,8 C -0,7 C 53,1 km/h (7 Bft) 98 %
21.02.2022 02:20 9,0 C 9,0 C 9,1 C 81 % 1001,8 hPa 0,0 l/m 27,4 km/h (4 Bft) SW 225 0 min 0,000 mm 0 W/m 5,9 C -0,1 C 45,1 km/h (6 Bft) 97 %
21.02.2022 02:30 8,9 C 8,9 C 9,0 C 81 % 1001,5 hPa 0,0 l/m 22,5 km/h (4 Bft) S-SW 202 0 min 0,000 mm 0 W/m 5,8 C 1,1 C 45,1 km/h (6 Bft) 98 %
21.02.2022 02:40 8,9 C 8,9 C 9,0 C 81 % 1001,0 hPa 0,0 l/m 24,1 km/h (4 Bft) S-SW 202 0 min 0,000 mm 0 W/m 5,8 C 0,6 C 59,5 km/h (7 Bft) 97 %
21.02.2022 02:50 9,0 C 8,9 C 9,0 C 81 % 1000,9 hPa 0,0 l/m 29,0 km/h (5 Bft) SW 225 0 min 0,000 mm 0 W/m 5,9 C -0,5 C 53,1 km/h (7 Bft) 89 %
21.02.2022 03:00 9,1 C 9,0 C 9,1 C 81 % 1000,7 hPa 0,0 l/m 35,4 km/h (5 Bft) SW 225 0 min 0,051 mm 0 W/m 6,0 C -1,7 C 62,8 km/h (8 Bft) 96 %
21.02.2022 03:10 9,1 C 9,1 C 9,2 C 81 % 1000,1 hPa 0,0 l/m 27,4 km/h (4 Bft) SW 225 0 min 0,000 mm 0 W/m 6,0 C -0,0 C 59,5 km/h (7 Bft) 97 %
21.02.2022 03:20 9,3 C 9,1 C 9,3 C 80 % 999,9 hPa 0,0 l/m 33,8 km/h (5 Bft) SW 225 0 min 0,000 mm 0 W/m 6,0 C -1,1 C 61,2 km/h (7 Bft) 98 %
21.02.2022 03:30 9,2 C 9,2 C 9,3 C 81 % 999,7 hPa 0,0 l/m 30,6 km/h (5 Bft) SW 225 0 min 0,000 mm 0 W/m 6,1 C -0,6 C 53,1 km/h (7 Bft) 97 %
21.02.2022 03:40 9,2 C 9,1 C 9,2 C 81 % 999,5 hPa 0,0 l/m 30,6 km/h (5 Bft) SW 225 0 min 0,000 mm 0 W/m 6,1 C -0,6 C 56,3 km/h (7 Bft) 98 %
21.02.2022 03:50 9,0 C 9,0 C 9,2 C 83 % 999,4 hPa 0,1 l/m 33,8 km/h (5 Bft) SW 225 0 min 0,000 mm 0 W/m 6,3 C -1,5 C 62,8 km/h (8 Bft) 97 %
21.02.2022 04:00 8,9 C 8,9 C 9,0 C 84 % 999,7 hPa 0,2 l/m 27,4 km/h (4 Bft) SW 225 0 min 0,051 mm 0 W/m 6,3 C -0,3 C 61,2 km/h (7 Bft) 98 %
21.02.2022 04:10 8,4 C 8,4 C 8,9 C 87 % 1000,0 hPa 0,6 l/m 20,9 km/h (4 Bft) W-SW 247 0 min 0,000 mm 0 W/m 6,4 C 0,9 C 56,3 km/h (7 Bft) 98 %
21.02.2022 04:20 6,3 C 6,3 C 8,4 C 84 % 1001,8 hPa 1,2 l/m 33,8 km/h (5 Bft) W-NW 292 0 min 0,000 mm 0 W/m 3,8 C -5,4 C 74,0 km/h (8 Bft) 98 %
21.02.2022 04:30 4,8 C 4,8 C 6,3 C 87 % 1001,9 hPa 0,4 l/m 29,0 km/h (5 Bft) W-NW 292 0 min 0,000 mm 0 W/m 2,8 C -6,4 C 57,9 km/h (7 Bft) 98 %
21.02.2022 04:40 4,5 C 4,5 C 4,8 C 87 % 1001,6 hPa 0,2 l/m 24,1 km/h (4 Bft) W-NW 292 0 min 0,000 mm 0 W/m 2,5 C -5,3 C 46,7 km/h (6 Bft) 97 %
21.02.2022 04:50 4,7 C 4,5 C 4,7 C 85 % 1001,6 hPa 0,1 l/m 20,9 km/h (4 Bft) W 270 0 min 0,000 mm 0 W/m 2,4 C -3,9 C 37,0 km/h (5 Bft) 98 %
21.02.2022 05:00 5,1 C 4,7 C 5,1 C 80 % 1001,5 hPa 0,0 l/m 24,1 km/h (4 Bft) W 270 0 min 0,025 mm 0 W/m 1,9 C -4,5 C 48,3 km/h (6 Bft) 97 %
21.02.2022 05:10 5,1 C 5,1 C 5,2 C 82 % 1001,9 hPa 0,0 l/m 17,7 km/h (3 Bft) W-SW 247 0 min 0,000 mm 0 W/m 2,3 C -2,1 C 33,8 km/h (5 Bft) 97 %
21.02.2022 05:20 5,1 C 5,1 C 5,2 C 83 % 1002,0 hPa 0,0 l/m 11,3 km/h (2 Bft) W-SW 247 0 min 0,000 mm 0 W/m 2,5 C 1,3 C 29,0 km/h (5 Bft) 89 %
21.02.2022 05:30 5,1 C 5,1 C 5,1 C 83 % 1002,2 hPa 0,0 l/m 9,7 km/h (2 Bft) W-SW 247 0 min 0,000 mm 0 W/m 2,5 C 2,4 C 37,0 km/h (5 Bft) 97 %
21.02.2022 05:40 5,1 C 5,1 C 5,1 C 83 % 1002,1 hPa 0,0 l/m 9,7 km/h (2 Bft) W-SW 247 0 min 0,000 mm 0 W/m 2,5 C 2,4 C 37,0 km/h (5 Bft) 98 %
21.02.2022 05:50 5,0 C 5,0 C 5,1 C 82 % 1002,3 hPa 0,0 l/m 9,7 km/h (2 Bft) W-SW 247 0 min 0,000 mm 0 W/m 2,2 C 2,3 C 37,0 km/h (5 Bft) 97 %
21.02.2022 06:00 4,9 C 4,9 C 5,0 C 82 % 1002,3 hPa 0,0 l/m 8,0 km/h (2 Bft) W-SW 247 0 min 0,025 mm 0 W/m 2,1 C 3,5 C 33,8 km/h (5 Bft) 98 %
21.02.2022 06:10 4,8 C 4,8 C 4,9 C 81 % 1002,3 hPa 0,0 l/m 8,0 km/h (2 Bft) W 270 0 min 0,000 mm 0 W/m 1,8 C 3,4 C 25,7 km/h (4 Bft) 98 %
21.02.2022 06:20 4,8 C 4,8 C 4,8 C 82 % 1002,6 hPa 0,0 l/m 6,4 km/h (2 Bft) W-SW 247 0 min 0,000 mm 0 W/m 2,0 C 4,8 C 27,4 km/h (4 Bft) 98 %
21.02.2022 06:30 4,8 C 4,8 C 4,8 C 81 % 1002,9 hPa 0,0 l/m 4,8 km/h (1 Bft) W 270 0 min 0,000 mm 0 W/m 1,8 C 4,8 C 25,7 km/h (4 Bft) 98 %
21.02.2022 06:40 4,8 C 4,8 C 4,8 C 80 % 1002,7 hPa 0,0 l/m 11,3 km/h (2 Bft) W 270 0 min 0,000 mm 0 W/m 1,6 C 1,0 C 33,8 km/h (5 Bft) 97 %
21.02.2022 06:50 4,8 C 4,8 C 4,9 C 78 % 1003,0 hPa 0,0 l/m 12,9 km/h (3 Bft) W 270 0 min 0,000 mm 0 W/m 1,3 C -0,0 C 32,2 km/h (5 Bft) 98 %
21.02.2022 07:00 4,8 C 4,8 C 4,8 C 76 % 1003,2 hPa 0,0 l/m 14,5 km/h (3 Bft) W 270 0 min 0,025 mm 0 W/m 0,9 C -0,9 C 35,4 km/h (5 Bft) 97 %
21.02.2022 07:10 4,8 C 4,8 C 4,8 C 76 % 1003,1 hPa 0,0 l/m 17,7 km/h (3 Bft) W 270 0 min 0,000 mm 0 W/m 0,9 C -2,5 C 38,6 km/h (5 Bft) 97 %
21.02.2022 07:20 4,6 C 4,6 C 4,8 C 76 % 1003,3 hPa 0,0 l/m 12,9 km/h (3 Bft) W 270 0 min 0,000 mm 0 W/m 0,7 C -0,2 C 32,2 km/h (5 Bft) 88 %
21.02.2022 07:30 4,5 C 4,4 C 4,6 C 77 % 1003,6 hPa 0,0 l/m 12,9 km/h (3 Bft) W 270 0 min 0,000 mm 5 W/m 0,8 C -0,4 C 30,6 km/h (5 Bft) 98 %
21.02.2022 07:40 4,3 C 4,3 C 4,4 C 76 % 1004,1 hPa 0,0 l/m 11,3 km/h (2 Bft) W 270 0 min 0,000 mm 7 W/m 0,5 C 0,4 C 33,8 km/h (5 Bft) 96 %
21.02.2022 07:50 4,2 C 4,2 C 4,3 C 74 % 1004,2 hPa 0,0 l/m 16,1 km/h (3 Bft) W 270 0 min 0,000 mm 9 W/m -0,0 C -2,5 C 35,4 km/h (5 Bft) 97 %
21.02.2022 08:00 4,1 C 4,0 C 4,2 C 72 % 1004,6 hPa 0,0 l/m 14,5 km/h (3 Bft) W 270 0 min 0,025 mm 23 W/m -0,5 C -1,7 C 37,0 km/h (5 Bft) 98 %
21.02.2022 08:10 4,0 C 4,0 C 4,1 C 73 % 1005,0 hPa 0,0 l/m 14,5 km/h (3 Bft) W 270 0 min 0,000 mm 32 W/m -0,4 C -1,9 C 37,0 km/h (5 Bft) 97 %
21.02.2022 08:20 4,0 C 3,9 C 4,0 C 73 % 1005,1 hPa 0,0 l/m 17,7 km/h (3 Bft) W 270 0 min 0,000 mm 37 W/m -0,4 C -3,5 C 37,0 km/h (5 Bft) 97 %
21.02.2022 08:30 4,1 C 4,0 C 4,1 C 74 % 1005,2 hPa 0,0 l/m 12,9 km/h (3 Bft) W 270 0 min 0,000 mm 114 W/m -0,1 C -0,8 C 32,2 km/h (5 Bft) 98 %
21.02.2022 08:40 4,4 C 4,1 C 4,4 C 73 % 1005,2 hPa 0,0 l/m 14,5 km/h (3 Bft) W-SW 247 0 min 0,000 mm 139 W/m -0,0 C -1,4 C 37,0 km/h (5 Bft) 98 %
21.02.2022 08:50 4,7 C 4,4 C 4,7 C 73 % 1005,4 hPa 0,0 l/m 11,3 km/h (2 Bft) W 270 10 min 0,000 mm 223 W/m 0,3 C 0,9 C 32,2 km/h (5 Bft) 97 %
21.02.2022 09:00 4,5 C 4,5 C 4,7 C 72 % 1005,6 hPa 0,0 l/m 14,5 km/h (3 Bft) W-SW 247 0 min 0,051 mm 79 W/m -0,1 C -1,3 C 33,8 km/h (5 Bft) 98 %
21.02.2022 09:10 4,4 C 4,4 C 4,5 C 74 % 1005,8 hPa 0,0 l/m 9,7 km/h (2 Bft) W-SW 247 0 min 0,000 mm 107 W/m 0,2 C 1,6 C 33,8 km/h (5 Bft) 98 %
21.02.2022 09:20 4,6 C 4,4 C 4,6 C 74 % 1005,9 hPa 0,0 l/m 11,3 km/h (2 Bft) W-SW 247 10 min 0,000 mm 165 W/m 0,4 C 0,7 C 30,6 km/h (5 Bft) 100 %
21.02.2022 09:30 4,6 C 4,6 C 4,6 C 73 % 1006,0 hPa 0,0 l/m 14,5 km/h (3 Bft) W-SW 247 0 min 0,000 mm 125 W/m 0,2 C -1,1 C 35,4 km/h (5 Bft) 99 %
21.02.2022 09:40 4,6 C 4,6 C 4,7 C 73 % 1005,9 hPa 0,0 l/m 16,1 km/h (3 Bft) W-SW 247 0 min 0,000 mm 120 W/m 0,2 C -2,0 C 37,0 km/h (5 Bft) 99 %
21.02.2022 09:50 4,7 C 4,6 C 4,7 C 73 % 1005,9 hPa 0,0 l/m 19,3 km/h (3 Bft) W-SW 247 0 min 0,000 mm 105 W/m 0,3 C -3,3 C 46,7 km/h (6 Bft) 99 %
21.02.2022 10:00 4,7 C 4,6 C 4,7 C 75 % 1006,0 hPa 0,1 l/m 16,1 km/h (3 Bft) W-SW 247 0 min 0,076 mm 134 W/m 0,7 C -1,8 C 32,2 km/h (5 Bft) 99 %
21.02.2022 10:10 4,7 C 4,7 C 4,8 C 75 % 1006,5 hPa 0,1 l/m 24,1 km/h (4 Bft) W-SW 247 0 min 0,000 mm 139 W/m 0,7 C -5,1 C 46,7 km/h (6 Bft) 100 %
21.02.2022 10:20 3,4 C 3,4 C 4,7 C 83 % 1006,8 hPa 0,2 l/m 27,4 km/h (4 Bft) W 270 0 min 0,000 mm 81 W/m 0,8 C -7,9 C 51,5 km/h (7 Bft) 100 %
21.02.2022 10:30 3,1 C 3,0 C 3,4 C 86 % 1006,7 hPa 0,2 l/m 16,1 km/h (3 Bft) W-SW 247 10 min 0,000 mm 227 W/m 1,0 C -3,8 C 33,8 km/h (5 Bft) 100 %
21.02.2022 10:40 3,2 C 3,1 C 3,2 C 88 % 1006,8 hPa 0,0 l/m 11,3 km/h (2 Bft) W 270 10 min 0,000 mm 563 W/m 1,4 C -0,8 C 29,0 km/h (5 Bft) 100 %
21.02.2022 10:50 3,5 C 3,2 C 3,5 C 89 % 1006,6 hPa 0,1 l/m 14,5 km/h (3 Bft) W 270 10 min 0,000 mm 427 W/m 1,9 C -2,5 C 37,0 km/h (5 Bft) 100 %
21.02.2022 11:00 3,8 C 3,5 C 3,8 C 88 % 1006,5 hPa 0,0 l/m 14,5 km/h (3 Bft) W-SW 247 10 min 0,102 mm 439 W/m 2,0 C -2,1 C 40,2 km/h (6 Bft) 99 %
21.02.2022 11:10 4,4 C 3,8 C 4,4 C 87 % 1006,5 hPa 0,1 l/m 14,5 km/h (3 Bft) W-SW 247 10 min 0,000 mm 436 W/m 2,4 C -1,4 C 32,2 km/h (5 Bft) 89 %
21.02.2022 11:20 4,8 C 4,4 C 4,8 C 83 % 1006,5 hPa 0,0 l/m 19,3 km/h (3 Bft) SW 225 10 min 0,000 mm 540 W/m 2,2 C -3,1 C 46,7 km/h (6 Bft) 100 %
21.02.2022 11:30 5,1 C 4,8 C 5,1 C 80 % 1006,5 hPa 0,0 l/m 22,5 km/h (4 Bft) W-SW 247 10 min 0,000 mm 485 W/m 1,9 C -4,0 C 48,3 km/h (6 Bft) 100 %
21.02.2022 11:40 5,3 C 5,2 C 5,3 C 77 % 1006,4 hPa 0,0 l/m 22,5 km/h (4 Bft) W 270 10 min 0,000 mm 517 W/m 1,6 C -3,7 C 45,1 km/h (6 Bft) 100 %
21.02.2022 11:50 5,7 C 5,3 C 5,7 C 76 % 1006,5 hPa 0,0 l/m 24,1 km/h (4 Bft) SW 225 10 min 0,000 mm 679 W/m 1,8 C -3,7 C 49,9 km/h (6 Bft) 100 %
21.02.2022 12:00 5,8 C 5,7 C 5,8 C 76 % 1006,6 hPa 0,0 l/m 22,5 km/h (4 Bft) W-SW 247 10 min 0,203 mm 633 W/m 1,9 C -3,0 C 46,7 km/h (6 Bft) 100 %
21.02.2022 12:10 6,1 C 5,8 C 6,1 C 74 % 1006,4 hPa 0,0 l/m 20,9 km/h (4 Bft) W 270 10 min 0,000 mm 640 W/m 1,8 C -2,1 C 53,1 km/h (7 Bft) 100 %
21.02.2022 12:20 6,4 C 6,1 C 6,4 C 71 % 1006,4 hPa 0,0 l/m 22,5 km/h (4 Bft) W-SW 247 10 min 0,000 mm 705 W/m 1,5 C -2,3 C 53,1 km/h (7 Bft) 100 %
21.02.2022 12:30 6,3 C 6,3 C 6,4 C 71 % 1006,2 hPa 0,1 l/m 24,1 km/h (4 Bft) W-SW 247 10 min 0,000 mm 684 W/m 1,4 C -2,9 C 53,1 km/h (7 Bft) 100 %
21.02.2022 12:40 6,5 C 6,2 C 6,5 C 70 % 1005,8 hPa 0,0 l/m 19,3 km/h (3 Bft) W-SW 247 10 min 0,000 mm 594 W/m 1,4 C -1,0 C 40,2 km/h (6 Bft) 100 %
21.02.2022 12:50 6,9 C 6,5 C 6,9 C 68 % 1005,8 hPa 0,0 l/m 19,3 km/h (3 Bft) W-SW 247 10 min 0,000 mm 659 W/m 1,4 C -0,5 C 43,5 km/h (6 Bft) 100 %
21.02.2022 13:00 6,6 C 6,6 C 6,9 C 67 % 1005,7 hPa 0,0 l/m 19,3 km/h (3 Bft) W-SW 247 10 min 0,229 mm 473 W/m 0,9 C -0,8 C 43,5 km/h (6 Bft) 100 %
21.02.2022 13:10 6,2 C 6,2 C 6,6 C 69 % 1006,1 hPa 0,0 l/m 27,4 km/h (4 Bft) W-SW 247 10 min 0,000 mm 202 W/m 0,9 C -4,0 C 57,9 km/h (7 Bft) 100 %
21.02.2022 13:30 5,3 C 5,3 C 6,6 C 77 % 1005,4 hPa 0,1 l/m 14,1 km/h (3 Bft) SW 231 20 min 0,000 mm 218 W/m 1,6 C -0,1 C 33,8 km/h (5 Bft) 98 %
21.02.2022 13:40 5,3 C 5,3 C 5,4 C 76 % 1005,5 hPa 0,1 l/m 19,6 km/h (3 Bft) W-SW 245 10 min 0,000 mm 174 W/m 1,4 C -2,6 C 49,9 km/h (6 Bft) 98 %
21.02.2022 13:50 4,8 C 4,8 C 5,3 C 79 % 1005,5 hPa 0,1 l/m 23,5 km/h (4 Bft) W-SW 240 0 min 0,000 mm 134 W/m 1,5 C -4,7 C 49,9 km/h (6 Bft) 98 %
21.02.2022 14:00 4,6 C 4,6 C 4,8 C 80 % 1005,2 hPa 0,0 l/m 17,1 km/h (3 Bft) W-SW 242 0 min 0,076 mm 100 W/m 1,5 C -2,4 C 38,6 km/h (5 Bft) 97 %
21.02.2022 14:11 4,7 C 4,6 C 4,7 C 80 % 1005,2 hPa 0,0 l/m 15,4 km/h (3 Bft) SW 220 0 min 0,000 mm 107 W/m 1,6 C -1,5 C 45,1 km/h (6 Bft) 98 %
21.02.2022 14:20 4,7 C 4,7 C 4,7 C 81 % 1005,1 hPa 0,0 l/m 15,8 km/h (3 Bft) W-SW 254 0 min 0,000 mm 90 W/m 1,7 C -1,7 C 32,2 km/h (5 Bft) 100 %
21.02.2022 14:30 4,6 C 4,6 C 4,7 C 81 % 1005,1 hPa 0,0 l/m 18,5 km/h (3 Bft) W-SW 244 0 min 0,000 mm 97 W/m 1,6 C -3,1 C 43,5 km/h (6 Bft) 100 %
21.02.2022 14:40 4,6 C 4,6 C 4,6 C 83 % 1005,1 hPa 0,0 l/m 19,0 km/h (3 Bft) W-SW 253 0 min 0,000 mm 81 W/m 2,0 C -3,3 C 45,1 km/h (6 Bft) 100 %
21.02.2022 14:50 4,4 C 4,4 C 4,6 C 85 % 1004,9 hPa 0,0 l/m 20,2 km/h (4 Bft) SW 236 0 min 0,000 mm 116 W/m 2,1 C -4,0 C 48,3 km/h (6 Bft) 100 %
21.02.2022 15:00 4,3 C 4,3 C 4,4 C 86 % 1004,6 hPa 0,0 l/m 16,1 km/h (3 Bft) W-SW 252 0 min 0,076 mm 104 W/m 2,2 C -2,3 C 48,3 km/h (6 Bft) 100 %
21.02.2022 15:10 4,7 C 4,3 C 4,7 C 84 % 1004,3 hPa 0,0 l/m 17,7 km/h (3 Bft) W 259 0 min 0,000 mm 116 W/m 2,2 C -2,6 C 46,7 km/h (6 Bft) 100 %
21.02.2022 15:20 4,9 C 4,7 C 4,9 C 81 % 1004,2 hPa 0,0 l/m 24,6 km/h (4 Bft) W-SW 242 0 min 0,000 mm 111 W/m 1,9 C -5,0 C 56,3 km/h (7 Bft) 100 %
21.02.2022 15:30 5,1 C 4,9 C 5,1 C 80 % 1004,0 hPa 0,0 l/m 26,0 km/h (4 Bft) W-SW 238 0 min 0,000 mm 135 W/m 1,9 C -5,1 C 53,1 km/h (7 Bft) 100 %
21.02.2022 15:40 5,1 C 5,1 C 5,2 C 81 % 1004,1 hPa 0,0 l/m 22,2 km/h (4 Bft) W 278 0 min 0,000 mm 77 W/m 2,1 C -3,9 C 53,1 km/h (7 Bft) 100 %
21.02.2022 15:50 4,9 C 4,9 C 5,1 C 82 % 1003,8 hPa 0,0 l/m 24,4 km/h (4 Bft) SW 234 0 min 0,000 mm 83 W/m 2,1 C -4,9 C 51,5 km/h (7 Bft) 100 %
21.02.2022 16:00 4,8 C 4,8 C 4,9 C 82 % 1003,7 hPa 0,0 l/m 25,1 km/h (4 Bft) W-SW 242 0 min 0,077 mm 47 W/m 2,0 C -5,2 C 49,9 km/h (6 Bft) 100 %
21.02.2022 16:10 4,9 C 4,8 C 4,9 C 82 % 1004,0 hPa 0,0 l/m 25,3 km/h (4 Bft) W-SW 237 0 min 0,000 mm 23 W/m 2,1 C -5,2 C 51,5 km/h (7 Bft) 100 %
21.02.2022 16:20 4,8 C 4,8 C 4,9 C 84 % 1003,8 hPa 0,0 l/m 25,0 km/h (4 Bft) SW 226 0 min 0,000 mm 12 W/m 2,3 C -5,2 C 54,7 km/h (7 Bft) 100 %
21.02.2022 16:30 4,5 C 4,5 C 4,8 C 86 % 1003,9 hPa 0,2 l/m 26,2 km/h (4 Bft) SW 216 0 min 0,000 mm 12 W/m 2,4 C -6,0 C 56,3 km/h (7 Bft) 100 %
21.02.2022 16:40 4,2 C 4,2 C 4,5 C 88 % 1004,1 hPa 0,4 l/m 22,8 km/h (4 Bft) SW 223 0 min 0,000 mm 11 W/m 2,4 C -5,3 C 45,1 km/h (6 Bft) 100 %
21.02.2022 16:50 4,0 C 4,0 C 4,2 C 89 % 1004,4 hPa 0,6 l/m 21,4 km/h (4 Bft) SW 224 0 min 0,000 mm 7 W/m 2,4 C -5,0 C 41,8 km/h (6 Bft) 100 %
21.02.2022 17:00 3,8 C 3,8 C 4,0 C 90 % 1004,4 hPa 0,6 l/m 16,1 km/h (3 Bft) SW 236 0 min 0,025 mm 11 W/m 2,3 C -2,9 C 45,1 km/h (6 Bft) 100 %
21.02.2022 17:10 3,9 C 3,8 C 3,9 C 91 % 1004,2 hPa 0,0 l/m 13,4 km/h (3 Bft) W-SW 240 0 min 0,000 mm 0 W/m 2,6 C -1,4 C 37,0 km/h (5 Bft) 100 %
21.02.2022 17:20 4,1 C 3,9 C 4,1 C 91 % 1004,1 hPa 0,2 l/m 8,8 km/h (2 Bft) SW 227 0 min 0,000 mm 0 W/m 2,8 C 2,0 C 40,2 km/h (6 Bft) 100 %
21.02.2022 17:30 4,3 C 4,1 C 4,3 C 90 % 1004,2 hPa 0,0 l/m 14,2 km/h (3 Bft) SW 220 0 min 0,000 mm 0 W/m 2,8 C -1,3 C 37,0 km/h (5 Bft) 100 %
21.02.2022 17:40 4,3 C 4,3 C 4,3 C 91 % 1004,2 hPa 0,2 l/m 17,1 km/h (3 Bft) W-SW 248 0 min 0,000 mm 0 W/m 3,0 C -2,8 C 37,0 km/h (5 Bft) 100 %
21.02.2022 17:50 4,3 C 4,3 C 4,3 C 91 % 1004,4 hPa 0,2 l/m 20,7 km/h (4 Bft) SW 221 0 min 0,000 mm 0 W/m 3,0 C -4,4 C 49,9 km/h (6 Bft) 100 %
21.02.2022 18:00 4,3 C 4,3 C 4,3 C 91 % 1004,3 hPa 0,2 l/m 22,1 km/h (4 Bft) W-SW 254 0 min 0,025 mm 0 W/m 3,0 C -4,9 C 53,1 km/h (7 Bft) 100 %
21.02.2022 18:10 4,4 C 4,3 C 4,4 C 91 % 1004,4 hPa 0,2 l/m 25,5 km/h (4 Bft) W-SW 244 0 min 0,000 mm 0 W/m 3,1 C -5,9 C 41,8 km/h (6 Bft) 100 %
21.02.2022 18:20 4,6 C 4,4 C 4,6 C 91 % 1004,8 hPa 0,0 l/m 21,5 km/h (4 Bft) SW 234 0 min 0,000 mm 0 W/m 3,3 C -4,3 C 45,1 km/h (6 Bft) 99 %
21.02.2022 18:30 4,6 C 4,6 C 4,7 C 91 % 1005,0 hPa 0,2 l/m 22,0 km/h (4 Bft) S-SW 213 0 min 0,000 mm 0 W/m 3,3 C -4,5 C 40,2 km/h (6 Bft) 100 %
21.02.2022 18:40 4,6 C 4,6 C 4,7 C 91 % 1005,2 hPa 0,4 l/m 20,9 km/h (4 Bft) W 265 0 min 0,000 mm 0 W/m 3,3 C -4,0 C 53,1 km/h (7 Bft) 99 %
21.02.2022 18:50 4,6 C 4,6 C 4,7 C 91 % 1005,5 hPa 0,6 l/m 18,3 km/h (3 Bft) S-SW 213 0 min 0,000 mm 0 W/m 3,3 C -3,0 C 38,6 km/h (5 Bft) 100 %
21.02.2022 19:00 4,6 C 4,6 C 4,6 C 92 % 1005,8 hPa 0,6 l/m 19,7 km/h (3 Bft) W-SW 256 0 min 0,026 mm 0 W/m 3,4 C -3,6 C 43,5 km/h (6 Bft) 100 %
21.02.2022 19:10 4,7 C 4,6 C 4,7 C 92 % 1006,0 hPa 0,0 l/m 20,0 km/h (4 Bft) W-SW 255 0 min 0,000 mm 0 W/m 3,5 C -3,6 C 35,4 km/h (5 Bft) 100 %
21.02.2022 19:20 4,8 C 4,7 C 4,8 C 91 % 1006,5 hPa 0,2 l/m 21,8 km/h (4 Bft) NW 319 0 min 0,000 mm 0 W/m 3,5 C -4,1 C 41,8 km/h (6 Bft) 100 %
21.02.2022 19:30 4,8 C 4,7 C 4,8 C 91 % 1007,0 hPa 0,0 l/m 19,9 km/h (4 Bft) NW 309 0 min 0,000 mm 0 W/m 3,5 C -3,4 C 40,2 km/h (6 Bft) 91 %
21.02.2022 19:40 4,8 C 4,7 C 4,8 C 91 % 1007,3 hPa 0,0 l/m 17,5 km/h (3 Bft) W-NW 289 0 min 0,000 mm 0 W/m 3,5 C -2,4 C 35,4 km/h (5 Bft) 100 %
21.02.2022 19:50 4,8 C 4,7 C 4,8 C 91 % 1007,7 hPa 0,0 l/m 14,9 km/h (3 Bft) W-NW 301 0 min 0,000 mm 0 W/m 3,5 C -1,1 C 30,6 km/h (5 Bft) 99 %
21.02.2022 20:00 4,8 C 4,8 C 4,8 C 90 % 1008,0 hPa 0,0 l/m 16,0 km/h (3 Bft) W-NW 303 0 min 0,025 mm 0 W/m 3,3 C -1,7 C 37,0 km/h (5 Bft) 100 %
21.02.2022 20:10 4,9 C 4,8 C 4,9 C 89 % 1008,1 hPa 0,0 l/m 17,5 km/h (3 Bft) W 263 0 min 0,000 mm 0 W/m 3,2 C -2,2 C 41,8 km/h (6 Bft) 100 %
21.02.2022 20:20 4,9 C 4,9 C 4,9 C 89 % 1008,4 hPa 0,0 l/m 10,9 km/h (2 Bft) W-NW 302 0 min 0,000 mm 0 W/m 3,2 C 1,3 C 25,7 km/h (4 Bft) 100 %
21.02.2022 20:30 4,8 C 4,8 C 4,9 C 87 % 1008,8 hPa 0,0 l/m 13,2 km/h (3 Bft) NW 306 0 min 0,000 mm 0 W/m 2,8 C -0,2 C 32,2 km/h (5 Bft) 91 %
21.02.2022 20:40 4,7 C 4,7 C 4,8 C 87 % 1009,2 hPa 0,0 l/m 11,9 km/h (2 Bft) NW 307 0 min 0,000 mm 0 W/m 2,7 C 0,5 C 32,2 km/h (5 Bft) 100 %
21.02.2022 20:50 4,6 C 4,6 C 4,7 C 86 % 1009,5 hPa 0,0 l/m 6,8 km/h (2 Bft) W 281 0 min 0,000 mm 0 W/m 2,5 C 4,3 C 27,4 km/h (4 Bft) 100 %
21.02.2022 21:00 4,6 C 4,6 C 4,6 C 85 % 1009,9 hPa 0,0 l/m 9,1 km/h (2 Bft) W-NW 291 0 min 0,026 mm 0 W/m 2,3 C 2,3 C 27,4 km/h (4 Bft) 99 %
21.02.2022 21:10 4,6 C 4,6 C 4,6 C 85 % 1010,3 hPa 0,0 l/m 9,7 km/h (2 Bft) W-NW 292 0 min 0,000 mm 0 W/m 2,3 C 1,8 C 32,2 km/h (5 Bft) 100 %
21.02.2022 21:20 4,6 C 4,6 C 4,7 C 85 % 1010,7 hPa 0,0 l/m 12,9 km/h (3 Bft) W-NW 292 0 min 0,000 mm 0 W/m 2,3 C -0,2 C 37,0 km/h (5 Bft) 100 %
21.02.2022 21:30 4,7 C 4,7 C 4,7 C 85 % 1011,0 hPa 0,0 l/m 11,3 km/h (2 Bft) W-NW 292 0 min 0,000 mm 0 W/m 2,4 C 0,9 C 27,4 km/h (4 Bft) 100 %
21.02.2022 21:40 4,5 C 4,5 C 4,7 C 86 % 1011,1 hPa 0,0 l/m 3,2 km/h (1 Bft) W-NW 292 0 min 0,000 mm 0 W/m 2,4 C 4,5 C 20,9 km/h (4 Bft) 100 %
21.02.2022 21:50 4,4 C 4,4 C 4,5 C 86 % 1011,4 hPa 0,0 l/m 1,6 km/h (1 Bft) W 270 0 min 0,000 mm 0 W/m 2,3 C 4,4 C 16,1 km/h (3 Bft) 89 %
21.02.2022 22:00 4,4 C 4,4 C 4,4 C 87 % 1011,7 hPa 0,0 l/m 1,6 km/h (1 Bft) W 270 0 min 0,025 mm 0 W/m 2,4 C 4,4 C 24,1 km/h (4 Bft) 100 %
21.02.2022 22:10 4,5 C 4,4 C 4,5 C 86 % 1011,8 hPa 0,0 l/m 3,2 km/h (1 Bft) W 270 0 min 0,000 mm 0 W/m 2,4 C 4,5 C 19,3 km/h (3 Bft) 100 %
21.02.2022 22:20 4,5 C 4,5 C 4,6 C 86 % 1012,0 hPa 0,0 l/m 1,6 km/h (1 Bft) W-SW 247 0 min 0,000 mm 0 W/m 2,4 C 4,5 C 11,3 km/h (2 Bft) 100 %
21.02.2022 22:30 4,5 C 4,5 C 4,5 C 86 % 1012,0 hPa 0,0 l/m 1,6 km/h (1 Bft) W-SW 247 0 min 0,000 mm 0 W/m 2,4 C 4,5 C 20,9 km/h (4 Bft) 100 %
21.02.2022 22:40 4,6 C 4,5 C 4,6 C 86 % 1012,3 hPa 0,0 l/m 3,2 km/h (1 Bft) SW 225 0 min 0,000 mm 0 W/m 2,5 C 4,6 C 11,3 km/h (2 Bft) 100 %
21.02.2022 22:50 4,6 C 4,6 C 4,6 C 85 % 1012,6 hPa 0,0 l/m 3,2 km/h (1 Bft) W-SW 247 0 min 0,000 mm 0 W/m 2,3 C 4,6 C 19,3 km/h (3 Bft) 100 %
21.02.2022 23:00 4,6 C 4,6 C 4,6 C 84 % 1012,7 hPa 0,0 l/m 4,8 km/h (1 Bft) W-SW 247 0 min 0,000 mm 0 W/m 2,1 C 4,6 C 20,9 km/h (4 Bft) 100 %
21.02.2022 23:10 4,6 C 4,6 C 4,7 C 84 % 1012,8 hPa 0,0 l/m 1,6 km/h (1 Bft) W-SW 247 0 min 0,000 mm 0 W/m 2,1 C 4,6 C 19,3 km/h (3 Bft) 100 %
21.02.2022 23:20 4,7 C 4,6 C 4,7 C 84 % 1012,9 hPa 0,0 l/m 4,8 km/h (1 Bft) SW 225 0 min 0,000 mm 0 W/m 2,2 C 4,7 C 19,3 km/h (3 Bft) 100 %
21.02.2022 23:30 4,7 C 4,7 C 4,7 C 84 % 1013,1 hPa 0,0 l/m 4,8 km/h (1 Bft) SW 225 0 min 0,000 mm 0 W/m 2,2 C 4,7 C 20,9 km/h (4 Bft) 100 %
21.02.2022 23:40 4,7 C 4,7 C 4,7 C 84 % 1013,1 hPa 0,0 l/m 4,8 km/h (1 Bft) SW 225 0 min 0,000 mm 0 W/m 2,2 C 4,7 C 20,9 km/h (4 Bft) 89 %
21.02.2022 23:50 4,8 C 4,7 C 4,8 C 83 % 1013,3 hPa 0,0 l/m 9,7 km/h (2 Bft) W-SW 247 0 min 0,000 mm 0 W/m 2,2 C 2,1 C 33,8 km/h (5 Bft) 100 %
_ Min-Zeit 10:30 10:30 10:40 13:00 03:50 - 21:50 - - - - - 08:00 10:20 22:20 00:00
Minimum _ 3,0 C 3,0 C 3,2 C 67 % 999,4 hPa - 1,6 km/h (1 Bft) - - - - - -0,5 C -7,9 C 11,3 km/h (2 Bft) 87 %
_ Max-Zeit 00:30 00:00 00:30 19:00 23:50 04:20 03:00 - - 13:30 13:00 12:20 04:10 06:20 04:20 10:40
Maximum _ 9,4 C 9,3 C 9,4 C 92 % 1013,3 hPa 1,2 l/m 35,4 km/h
SW (5 Bft)
- - 20 min 0,229 mm 705 W/m 6,4 C 4,8 C 74,0 km/h
W-NW (8 Bft)
100 %
Durchschnitt _ 5,5 C 5,5 C 5,6 C 82 % 1005,3 hPa #8,8 l/m 17,9 km/h (3 Bft) W-SW - #3:40 h #1,397 mm 218 W/m 2,6 C -1,0 C 41,3 km/h (6 Bft) 98 %
PRIVATE WETTERSTATION BILLIGHEIM-ALLFELD - www.neckar-odenwald-wetter.de - Holger Sonntag